sensor_id;sensor_type;location;lat;lon;timestamp;P1;durP1;ratioP1;P2;durP2;ratioP2
38717;SDS011;24468;52.128;9.278;2022-08-21T00:02:19;4.43;;;2.00;;
38717;SDS011;24468;52.128;9.278;2022-08-21T00:04:47;4.22;;;1.75;;
38717;SDS011;24468;52.128;9.278;2022-08-21T00:07:14;7.85;;;2.10;;
38717;SDS011;24468;52.128;9.278;2022-08-21T00:09:39;4.28;;;1.88;;
38717;SDS011;24468;52.128;9.278;2022-08-21T00:12:05;3.72;;;1.75;;
38717;SDS011;24468;52.128;9.278;2022-08-21T00:14:32;3.67;;;1.27;;
38717;SDS011;24468;52.128;9.278;2022-08-21T00:16:58;4.50;;;2.13;;
38717;SDS011;24468;52.128;9.278;2022-08-21T00:19:25;3.40;;;1.70;;
38717;SDS011;24468;52.128;9.278;2022-08-21T00:21:51;4.88;;;1.52;;
38717;SDS011;24468;52.128;9.278;2022-08-21T00:24:19;4.18;;;1.45;;
38717;SDS011;24468;52.128;9.278;2022-08-21T00:26:46;8.30;;;2.15;;
38717;SDS011;24468;52.128;9.278;2022-08-21T00:29:12;4.57;;;1.50;;
38717;SDS011;24468;52.128;9.278;2022-08-21T00:31:38;2.95;;;1.75;;
38717;SDS011;24468;52.128;9.278;2022-08-21T00:34:05;4.55;;;1.52;;
38717;SDS011;24468;52.128;9.278;2022-08-21T00:36:32;4.55;;;1.65;;
38717;SDS011;24468;52.128;9.278;2022-08-21T00:38:59;4.72;;;1.67;;
38717;SDS011;24468;52.128;9.278;2022-08-21T00:41:25;6.35;;;3.17;;
38717;SDS011;24468;52.128;9.278;2022-08-21T00:43:53;10.10;;;3.72;;
38717;SDS011;24468;52.128;9.278;2022-08-21T00:46:19;7.25;;;3.70;;
38717;SDS011;24468;52.128;9.278;2022-08-21T00:48:46;3.50;;;2.42;;
38717;SDS011;24468;52.128;9.278;2022-08-21T00:54:20;5.25;;;2.90;;
38717;SDS011;24468;52.128;9.278;2022-08-21T00:56:51;5.13;;;2.60;;
38717;SDS011;24468;52.128;9.278;2022-08-21T00:59:20;4.75;;;2.47;;
38717;SDS011;24468;52.128;9.278;2022-08-21T01:01:47;4.22;;;2.20;;
38717;SDS011;24468;52.128;9.278;2022-08-21T01:04:14;8.13;;;5.47;;
38717;SDS011;24468;52.128;9.278;2022-08-21T01:06:41;6.05;;;3.88;;
38717;SDS011;24468;52.128;9.278;2022-08-21T01:09:07;4.68;;;3.47;;
38717;SDS011;24468;52.128;9.278;2022-08-21T01:11:35;4.65;;;3.70;;
38717;SDS011;24468;52.128;9.278;2022-08-21T01:14:01;8.50;;;3.08;;
38717;SDS011;24468;52.128;9.278;2022-08-21T01:16:27;9.80;;;2.97;;
38717;SDS011;24468;52.128;9.278;2022-08-21T01:18:53;3.53;;;2.78;;
38717;SDS011;24468;52.128;9.278;2022-08-21T01:21:21;4.15;;;2.20;;
38717;SDS011;24468;52.128;9.278;2022-08-21T01:23:50;4.35;;;2.63;;
38717;SDS011;24468;52.128;9.278;2022-08-21T01:26:20;5.25;;;3.33;;
38717;SDS011;24468;52.128;9.278;2022-08-21T01:28:57;7.15;;;3.65;;
38717;SDS011;24468;52.128;9.278;2022-08-21T01:31:57;9.55;;;3.80;;
38717;SDS011;24468;52.128;9.278;2022-08-21T01:34:25;5.68;;;3.75;;
38717;SDS011;24468;52.128;9.278;2022-08-21T01:36:50;6.60;;;4.15;;
38717;SDS011;24468;52.128;9.278;2022-08-21T01:39:16;6.50;;;3.72;;
38717;SDS011;24468;52.128;9.278;2022-08-21T01:41:42;4.85;;;3.35;;
38717;SDS011;24468;52.128;9.278;2022-08-21T01:44:08;5.90;;;3.97;;
38717;SDS011;24468;52.128;9.278;2022-08-21T01:46:35;3.85;;;2.40;;
38717;SDS011;24468;52.128;9.278;2022-08-21T01:49:01;4.57;;;2.60;;
38717;SDS011;24468;52.128;9.278;2022-08-21T01:51:29;7.65;;;2.90;;
38717;SDS011;24468;52.128;9.278;2022-08-21T01:53:55;4.72;;;2.03;;
38717;SDS011;24468;52.128;9.278;2022-08-21T01:56:20;4.60;;;2.42;;
38717;SDS011;24468;52.128;9.278;2022-08-21T01:58:46;5.53;;;2.67;;
38717;SDS011;24468;52.128;9.278;2022-08-21T02:01:13;3.90;;;2.30;;
38717;SDS011;24468;52.128;9.278;2022-08-21T02:03:39;2.20;;;1.77;;
38717;SDS011;24468;52.128;9.278;2022-08-21T02:06:06;4.65;;;2.38;;
38717;SDS011;24468;52.128;9.278;2022-08-21T02:08:36;4.88;;;2.30;;
38717;SDS011;24468;52.128;9.278;2022-08-21T02:11:02;4.32;;;2.15;;
38717;SDS011;24468;52.128;9.278;2022-08-21T02:13:27;6.35;;;2.08;;
38717;SDS011;24468;52.128;9.278;2022-08-21T02:15:53;3.80;;;1.88;;
38717;SDS011;24468;52.128;9.278;2022-08-21T02:18:18;5.32;;;2.63;;
38717;SDS011;24468;52.128;9.278;2022-08-21T02:20:45;3.03;;;2.20;;
38717;SDS011;24468;52.128;9.278;2022-08-21T02:23:15;3.77;;;2.63;;
38717;SDS011;24468;52.128;9.278;2022-08-21T02:25:41;4.35;;;3.33;;
38717;SDS011;24468;52.128;9.278;2022-08-21T02:28:11;4.80;;;2.80;;
38717;SDS011;24468;52.128;9.278;2022-08-21T02:30:41;3.17;;;2.20;;
38717;SDS011;24468;52.128;9.278;2022-08-21T02:33:10;3.03;;;2.47;;
38717;SDS011;24468;52.128;9.278;2022-08-21T02:35:37;3.88;;;2.13;;
38717;SDS011;24468;52.128;9.278;2022-08-21T02:38:07;10.65;;;4.43;;
38717;SDS011;24468;52.128;9.278;2022-08-21T02:40:37;7.35;;;3.05;;
38717;SDS011;24468;52.128;9.278;2022-08-21T02:43:06;6.00;;;3.22;;
38717;SDS011;24468;52.128;9.278;2022-08-21T02:45:34;4.28;;;3.00;;
38717;SDS011;24468;52.128;9.278;2022-08-21T02:48:03;5.45;;;3.17;;
38717;SDS011;24468;52.128;9.278;2022-08-21T02:50:36;4.70;;;2.33;;
38717;SDS011;24468;52.128;9.278;2022-08-21T02:53:08;4.72;;;2.45;;
38717;SDS011;24468;52.128;9.278;2022-08-21T02:55:38;6.43;;;3.45;;
38717;SDS011;24468;52.128;9.278;2022-08-21T02:58:05;6.25;;;3.25;;
38717;SDS011;24468;52.128;9.278;2022-08-21T03:00:32;4.35;;;2.97;;
38717;SDS011;24468;52.128;9.278;2022-08-21T03:03:00;4.68;;;2.33;;
38717;SDS011;24468;52.128;9.278;2022-08-21T03:05:27;3.45;;;2.08;;
38717;SDS011;24468;52.128;9.278;2022-08-21T03:07:55;4.38;;;2.38;;
38717;SDS011;24468;52.128;9.278;2022-08-21T03:10:23;2.83;;;1.92;;
38717;SDS011;24468;52.128;9.278;2022-08-21T03:12:50;3.92;;;2.15;;
38717;SDS011;24468;52.128;9.278;2022-08-21T03:15:17;3.97;;;1.95;;
38717;SDS011;24468;52.128;9.278;2022-08-21T03:17:46;3.33;;;1.83;;
38717;SDS011;24468;52.128;9.278;2022-08-21T03:20:14;3.53;;;2.15;;
38717;SDS011;24468;52.128;9.278;2022-08-21T03:22:42;3.35;;;1.67;;
38717;SDS011;24468;52.128;9.278;2022-08-21T03:25:08;3.10;;;1.70;;
38717;SDS011;24468;52.128;9.278;2022-08-21T03:27:35;3.95;;;1.92;;
38717;SDS011;24468;52.128;9.278;2022-08-21T03:30:02;5.40;;;2.30;;
38717;SDS011;24468;52.128;9.278;2022-08-21T03:32:32;2.90;;;1.60;;
38717;SDS011;24468;52.128;9.278;2022-08-21T03:34:59;3.13;;;1.70;;
38717;SDS011;24468;52.128;9.278;2022-08-21T03:37:25;3.50;;;1.85;;
38717;SDS011;24468;52.128;9.278;2022-08-21T03:39:52;4.25;;;2.20;;
38717;SDS011;24468;52.128;9.278;2022-08-21T03:42:17;4.13;;;2.10;;
38717;SDS011;24468;52.128;9.278;2022-08-21T03:44:43;3.92;;;2.20;;
38717;SDS011;24468;52.128;9.278;2022-08-21T03:47:08;18.50;;;2.85;;
38717;SDS011;24468;52.128;9.278;2022-08-21T03:49:34;4.15;;;1.85;;
38717;SDS011;24468;52.128;9.278;2022-08-21T03:52:01;3.25;;;1.60;;
38717;SDS011;24468;52.128;9.278;2022-08-21T03:54:27;3.47;;;1.90;;
38717;SDS011;24468;52.128;9.278;2022-08-21T03:56:52;3.83;;;2.10;;
38717;SDS011;24468;52.128;9.278;2022-08-21T03:59:18;6.85;;;2.03;;
38717;SDS011;24468;52.128;9.278;2022-08-21T04:01:50;6.10;;;2.53;;
38717;SDS011;24468;52.128;9.278;2022-08-21T04:04:26;7.65;;;2.63;;
38717;SDS011;24468;52.128;9.278;2022-08-21T04:06:53;3.78;;;2.03;;
38717;SDS011;24468;52.128;9.278;2022-08-21T04:09:19;5.97;;;2.30;;
38717;SDS011;24468;52.128;9.278;2022-08-21T04:11:45;5.72;;;2.42;;
38717;SDS011;24468;52.128;9.278;2022-08-21T04:14:11;2.92;;;1.92;;
38717;SDS011;24468;52.128;9.278;2022-08-21T04:16:39;3.22;;;2.08;;
38717;SDS011;24468;52.128;9.278;2022-08-21T04:19:06;5.45;;;2.60;;
38717;SDS011;24468;52.128;9.278;2022-08-21T04:21:32;6.82;;;2.88;;
38717;SDS011;24468;52.128;9.278;2022-08-21T04:24:02;4.10;;;2.30;;
38717;SDS011;24468;52.128;9.278;2022-08-21T04:26:29;4.65;;;2.17;;
38717;SDS011;24468;52.128;9.278;2022-08-21T04:28:55;2.72;;;1.90;;
38717;SDS011;24468;52.128;9.278;2022-08-21T04:31:23;8.40;;;2.28;;
38717;SDS011;24468;52.128;9.278;2022-08-21T04:33:49;13.23;;;2.33;;
38717;SDS011;24468;52.128;9.278;2022-08-21T04:36:16;4.35;;;2.42;;
38717;SDS011;24468;52.128;9.278;2022-08-21T04:38:42;3.28;;;1.95;;
38717;SDS011;24468;52.128;9.278;2022-08-21T04:41:08;4.50;;;2.05;;
38717;SDS011;24468;52.128;9.278;2022-08-21T04:43:34;4.20;;;1.88;;
38717;SDS011;24468;52.128;9.278;2022-08-21T04:45:59;4.43;;;2.20;;
38717;SDS011;24468;52.128;9.278;2022-08-21T04:48:25;4.45;;;2.03;;
38717;SDS011;24468;52.128;9.278;2022-08-21T04:50:54;4.38;;;2.40;;
38717;SDS011;24468;52.128;9.278;2022-08-21T04:53:41;5.43;;;2.30;;
38717;SDS011;24468;52.128;9.278;2022-08-21T04:56:26;5.47;;;2.90;;
38717;SDS011;24468;52.128;9.278;2022-08-21T05:01:27;3.35;;;2.30;;
38717;SDS011;24468;52.128;9.278;2022-08-21T05:03:58;6.38;;;2.65;;
38717;SDS011;24468;52.128;9.278;2022-08-21T05:06:27;6.05;;;2.72;;
38717;SDS011;24468;52.128;9.278;2022-08-21T05:08:55;7.00;;;3.10;;
38717;SDS011;24468;52.128;9.278;2022-08-21T05:11:21;5.78;;;2.95;;
38717;SDS011;24468;52.128;9.278;2022-08-21T05:13:48;6.63;;;2.78;;
38717;SDS011;24468;52.128;9.278;2022-08-21T05:16:14;7.60;;;3.28;;
38717;SDS011;24468;52.128;9.278;2022-08-21T05:18:40;5.57;;;2.80;;
38717;SDS011;24468;52.128;9.278;2022-08-21T05:21:07;4.32;;;2.53;;
38717;SDS011;24468;52.128;9.278;2022-08-21T05:23:33;5.10;;;2.90;;
38717;SDS011;24468;52.128;9.278;2022-08-21T05:25:58;6.80;;;3.03;;
38717;SDS011;24468;52.128;9.278;2022-08-21T05:28:25;4.75;;;3.45;;
38717;SDS011;24468;52.128;9.278;2022-08-21T05:30:51;6.90;;;3.65;;
38717;SDS011;24468;52.128;9.278;2022-08-21T05:33:17;9.07;;;2.75;;
38717;SDS011;24468;52.128;9.278;2022-08-21T05:35:42;7.43;;;3.20;;
38717;SDS011;24468;52.128;9.278;2022-08-21T05:38:08;5.88;;;3.17;;
38717;SDS011;24468;52.128;9.278;2022-08-21T05:40:34;3.15;;;2.45;;
38717;SDS011;24468;52.128;9.278;2022-08-21T05:43:00;5.25;;;2.90;;
38717;SDS011;24468;52.128;9.278;2022-08-21T05:45:28;6.20;;;2.58;;
38717;SDS011;24468;52.128;9.278;2022-08-21T05:47:57;8.53;;;3.20;;
38717;SDS011;24468;52.128;9.278;2022-08-21T05:50:30;6.55;;;3.10;;
38717;SDS011;24468;52.128;9.278;2022-08-21T05:52:56;2.58;;;1.85;;
38717;SDS011;24468;52.128;9.278;2022-08-21T05:55:21;4.72;;;2.70;;
38717;SDS011;24468;52.128;9.278;2022-08-21T05:57:47;9.07;;;4.68;;
38717;SDS011;24468;52.128;9.278;2022-08-21T06:00:13;3.95;;;2.90;;
38717;SDS011;24468;52.128;9.278;2022-08-21T06:02:40;5.00;;;3.05;;
38717;SDS011;24468;52.128;9.278;2022-08-21T06:05:06;3.78;;;2.92;;
38717;SDS011;24468;52.128;9.278;2022-08-21T06:07:32;3.88;;;3.20;;
38717;SDS011;24468;52.128;9.278;2022-08-21T06:09:57;6.75;;;3.47;;
38717;SDS011;24468;52.128;9.278;2022-08-21T06:12:23;5.88;;;3.47;;
38717;SDS011;24468;52.128;9.278;2022-08-21T06:14:49;6.43;;;4.63;;
38717;SDS011;24468;52.128;9.278;2022-08-21T06:17:17;6.60;;;3.78;;
38717;SDS011;24468;52.128;9.278;2022-08-21T06:19:43;6.30;;;3.78;;
38717;SDS011;24468;52.128;9.278;2022-08-21T06:22:09;6.13;;;3.67;;
38717;SDS011;24468;52.128;9.278;2022-08-21T06:24:35;6.80;;;3.42;;
38717;SDS011;24468;52.128;9.278;2022-08-21T06:27:05;6.97;;;3.38;;
38717;SDS011;24468;52.128;9.278;2022-08-21T06:29:32;6.07;;;3.88;;
38717;SDS011;24468;52.128;9.278;2022-08-21T06:31:59;6.40;;;3.70;;
38717;SDS011;24468;52.128;9.278;2022-08-21T06:34:24;4.90;;;3.72;;
38717;SDS011;24468;52.128;9.278;2022-08-21T06:36:50;5.63;;;2.88;;
38717;SDS011;24468;52.128;9.278;2022-08-21T06:39:15;7.75;;;4.07;;
38717;SDS011;24468;52.128;9.278;2022-08-21T06:41:41;4.97;;;3.33;;
38717;SDS011;24468;52.128;9.278;2022-08-21T06:44:07;5.05;;;3.15;;
38717;SDS011;24468;52.128;9.278;2022-08-21T06:46:32;6.35;;;3.53;;
38717;SDS011;24468;52.128;9.278;2022-08-21T06:48:58;8.05;;;4.25;;
38717;SDS011;24468;52.128;9.278;2022-08-21T06:51:24;5.43;;;3.30;;
38717;SDS011;24468;52.128;9.278;2022-08-21T06:53:51;5.80;;;2.92;;
38717;SDS011;24468;52.128;9.278;2022-08-21T06:56:17;5.78;;;3.35;;
38717;SDS011;24468;52.128;9.278;2022-08-21T06:58:44;5.65;;;3.38;;
38717;SDS011;24468;52.128;9.278;2022-08-21T07:01:09;6.18;;;3.75;;
38717;SDS011;24468;52.128;9.278;2022-08-21T07:03:36;5.57;;;3.70;;
38717;SDS011;24468;52.128;9.278;2022-08-21T07:06:07;11.65;;;3.95;;
38717;SDS011;24468;52.128;9.278;2022-08-21T07:08:36;9.55;;;3.95;;
38717;SDS011;24468;52.128;9.278;2022-08-21T07:11:03;10.68;;;3.75;;
38717;SDS011;24468;52.128;9.278;2022-08-21T07:13:34;5.68;;;3.45;;
38717;SDS011;24468;52.128;9.278;2022-08-21T07:16:00;8.57;;;4.22;;
38717;SDS011;24468;52.128;9.278;2022-08-21T07:18:26;4.18;;;2.75;;
38717;SDS011;24468;52.128;9.278;2022-08-21T07:20:51;7.10;;;2.70;;
38717;SDS011;24468;52.128;9.278;2022-08-21T07:23:28;8.07;;;3.75;;
38717;SDS011;24468;52.128;9.278;2022-08-21T07:25:58;5.83;;;3.50;;
38717;SDS011;24468;52.128;9.278;2022-08-21T07:28:25;8.10;;;4.18;;
38717;SDS011;24468;52.128;9.278;2022-08-21T07:30:52;5.85;;;4.05;;
38717;SDS011;24468;52.128;9.278;2022-08-21T07:33:21;6.53;;;3.30;;
38717;SDS011;24468;52.128;9.278;2022-08-21T07:35:46;10.40;;;3.92;;
38717;SDS011;24468;52.128;9.278;2022-08-21T07:38:12;6.78;;;4.03;;
38717;SDS011;24468;52.128;9.278;2022-08-21T07:40:38;6.65;;;3.38;;
38717;SDS011;24468;52.128;9.278;2022-08-21T07:43:03;7.13;;;3.42;;
38717;SDS011;24468;52.128;9.278;2022-08-21T07:45:29;8.10;;;4.15;;
38717;SDS011;24468;52.128;9.278;2022-08-21T07:47:55;8.38;;;3.75;;
38717;SDS011;24468;52.128;9.278;2022-08-21T07:50:21;5.13;;;2.70;;
38717;SDS011;24468;52.128;9.278;2022-08-21T07:52:47;6.40;;;3.75;;
38717;SDS011;24468;52.128;9.278;2022-08-21T07:55:14;8.20;;;3.60;;
38717;SDS011;24468;52.128;9.278;2022-08-21T07:57:43;7.05;;;2.80;;
38717;SDS011;24468;52.128;9.278;2022-08-21T08:00:11;8.30;;;2.85;;
38717;SDS011;24468;52.128;9.278;2022-08-21T08:02:40;10.10;;;3.28;;
38717;SDS011;24468;52.128;9.278;2022-08-21T08:05:10;8.75;;;3.80;;
38717;SDS011;24468;52.128;9.278;2022-08-21T08:07:36;6.32;;;3.08;;
38717;SDS011;24468;52.128;9.278;2022-08-21T08:10:03;7.03;;;3.08;;
38717;SDS011;24468;52.128;9.278;2022-08-21T08:12:32;6.13;;;3.03;;
38717;SDS011;24468;52.128;9.278;2022-08-21T08:14:59;7.53;;;2.58;;
38717;SDS011;24468;52.128;9.278;2022-08-21T08:17:26;8.43;;;3.20;;
38717;SDS011;24468;52.128;9.278;2022-08-21T08:19:52;8.63;;;2.92;;
38717;SDS011;24468;52.128;9.278;2022-08-21T08:22:19;5.00;;;2.70;;
38717;SDS011;24468;52.128;9.278;2022-08-21T08:24:51;5.80;;;2.72;;
38717;SDS011;24468;52.128;9.278;2022-08-21T08:27:18;7.18;;;3.05;;
38717;SDS011;24468;52.128;9.278;2022-08-21T08:29:44;7.00;;;2.72;;
38717;SDS011;24468;52.128;9.278;2022-08-21T08:32:11;5.10;;;2.67;;
38717;SDS011;24468;52.128;9.278;2022-08-21T08:34:37;9.40;;;2.97;;
38717;SDS011;24468;52.128;9.278;2022-08-21T08:37:07;4.53;;;2.53;;
38717;SDS011;24468;52.128;9.278;2022-08-21T08:39:34;10.70;;;3.28;;
38717;SDS011;24468;52.128;9.278;2022-08-21T08:44:41;3.20;;;1.63;;
38717;SDS011;24468;52.128;9.278;2022-08-21T08:47:11;5.55;;;1.85;;
38717;SDS011;24468;52.128;9.278;2022-08-21T08:52:26;2.90;;;1.70;;
38717;SDS011;24468;52.128;9.278;2022-08-21T08:55:17;4.65;;;1.48;;
38717;SDS011;24468;52.128;9.278;2022-08-21T08:57:53;4.45;;;1.80;;
38717;SDS011;24468;52.128;9.278;2022-08-21T09:00:20;6.55;;;2.22;;
38717;SDS011;24468;52.128;9.278;2022-08-21T09:02:47;6.38;;;1.98;;
38717;SDS011;24468;52.128;9.278;2022-08-21T09:14:26;7.75;;;1.88;;
38717;SDS011;24468;52.128;9.278;2022-08-21T09:17:52;5.05;;;1.50;;
38717;SDS011;24468;52.128;9.278;2022-08-21T09:29:33;5.80;;;2.35;;
38717;SDS011;24468;52.128;9.278;2022-08-21T09:32:04;6.82;;;1.40;;
38717;SDS011;24468;52.128;9.278;2022-08-21T09:34:54;5.23;;;1.83;;
38717;SDS011;24468;52.128;9.278;2022-08-21T09:40:40;6.43;;;1.42;;
38717;SDS011;24468;52.128;9.278;2022-08-21T09:45:39;6.85;;;1.60;;
38717;SDS011;24468;52.128;9.278;2022-08-21T09:48:23;2.65;;;1.33;;
38717;SDS011;24468;52.128;9.278;2022-08-21T09:50:51;4.30;;;1.92;;
38717;SDS011;24468;52.128;9.278;2022-08-21T09:53:19;8.43;;;1.77;;
38717;SDS011;24468;52.128;9.278;2022-08-21T09:58:41;3.50;;;1.10;;
38717;SDS011;24468;52.128;9.278;2022-08-21T10:01:16;4.32;;;1.58;;
38717;SDS011;24468;52.128;9.278;2022-08-21T10:03:49;6.68;;;1.83;;
38717;SDS011;24468;52.128;9.278;2022-08-21T10:06:33;6.68;;;1.65;;
38717;SDS011;24468;52.128;9.278;2022-08-21T10:09:13;4.35;;;1.85;;
38717;SDS011;24468;52.128;9.278;2022-08-21T10:11:43;10.43;;;1.88;;
38717;SDS011;24468;52.128;9.278;2022-08-21T10:14:54;7.82;;;2.28;;
38717;SDS011;24468;52.128;9.278;2022-08-21T10:17:37;4.75;;;1.67;;
38717;SDS011;24468;52.128;9.278;2022-08-21T10:20:25;2.88;;;1.45;;
38717;SDS011;24468;52.128;9.278;2022-08-21T10:28:45;7.85;;;1.77;;
38717;SDS011;24468;52.128;9.278;2022-08-21T10:31:21;5.53;;;1.80;;
38717;SDS011;24468;52.128;9.278;2022-08-21T10:48:57;7.35;;;1.95;;
38717;SDS011;24468;52.128;9.278;2022-08-21T10:55:12;3.90;;;1.65;;
38717;SDS011;24468;52.128;9.278;2022-08-21T10:57:53;5.80;;;1.50;;
38717;SDS011;24468;52.128;9.278;2022-08-21T11:00:40;6.70;;;2.00;;
38717;SDS011;24468;52.128;9.278;2022-08-21T11:06:16;4.80;;;1.83;;
38717;SDS011;24468;52.128;9.278;2022-08-21T11:09:04;3.20;;;1.60;;
38717;SDS011;24468;52.128;9.278;2022-08-21T11:11:47;4.20;;;1.60;;
38717;SDS011;24468;52.128;9.278;2022-08-21T11:17:46;25.73;;;7.38;;
38717;SDS011;24468;52.128;9.278;2022-08-21T11:20:28;13.35;;;3.33;;
38717;SDS011;24468;52.128;9.278;2022-08-21T11:23:14;5.53;;;1.65;;
38717;SDS011;24468;52.128;9.278;2022-08-21T11:26:02;2.90;;;1.50;;
38717;SDS011;24468;52.128;9.278;2022-08-21T11:29:04;4.43;;;1.63;;
38717;SDS011;24468;52.128;9.278;2022-08-21T11:31:55;10.85;;;1.63;;
38717;SDS011;24468;52.128;9.278;2022-08-21T11:34:29;3.38;;;1.40;;
38717;SDS011;24468;52.128;9.278;2022-08-21T11:52:30;3.53;;;1.67;;
38717;SDS011;24468;52.128;9.278;2022-08-21T11:55:47;8.02;;;2.78;;
38717;SDS011;24468;52.128;9.278;2022-08-21T11:58:23;3.92;;;1.52;;
38717;SDS011;24468;52.128;9.278;2022-08-21T12:00:56;5.63;;;1.63;;
38717;SDS011;24468;52.128;9.278;2022-08-21T12:03:33;4.20;;;1.45;;
38717;SDS011;24468;52.128;9.278;2022-08-21T12:06:10;4.45;;;1.88;;
38717;SDS011;24468;52.128;9.278;2022-08-21T12:08:39;5.47;;;1.33;;
38717;SDS011;24468;52.128;9.278;2022-08-21T12:14:00;3.75;;;1.50;;
38717;SDS011;24468;52.128;9.278;2022-08-21T12:19:10;3.60;;;1.35;;
38717;SDS011;24468;52.128;9.278;2022-08-21T12:22:34;2.25;;;1.17;;
38717;SDS011;24468;52.128;9.278;2022-08-21T12:24:43;5.80;;;1.50;;
38717;SDS011;24468;52.128;9.278;2022-08-21T12:27:29;3.20;;;1.35;;
38717;SDS011;24468;52.128;9.278;2022-08-21T12:30:19;6.10;;;1.30;;
38717;SDS011;24468;52.128;9.278;2022-08-21T12:33:06;5.00;;;1.65;;
38717;SDS011;24468;52.128;9.278;2022-08-21T12:35:52;4.80;;;1.80;;
38717;SDS011;24468;52.128;9.278;2022-08-21T12:38:39;2.45;;;1.70;;
38717;SDS011;24468;52.128;9.278;2022-08-21T12:41:55;6.43;;;1.60;;
38717;SDS011;24468;52.128;9.278;2022-08-21T12:44:35;2.78;;;1.77;;
38717;SDS011;24468;52.128;9.278;2022-08-21T12:49:50;4.03;;;1.20;;
38717;SDS011;24468;52.128;9.278;2022-08-21T12:52:33;4.75;;;1.88;;
38717;SDS011;24468;52.128;9.278;2022-08-21T12:55:30;4.80;;;2.70;;
38717;SDS011;24468;52.128;9.278;2022-08-21T12:57:58;3.17;;;1.85;;
38717;SDS011;24468;52.128;9.278;2022-08-21T13:00:26;4.82;;;1.80;;
38717;SDS011;24468;52.128;9.278;2022-08-21T13:02:55;2.80;;;1.33;;
38717;SDS011;24468;52.128;9.278;2022-08-21T13:05:29;6.57;;;1.95;;
38717;SDS011;24468;52.128;9.278;2022-08-21T13:08:04;4.72;;;1.65;;
38717;SDS011;24468;52.128;9.278;2022-08-21T13:10:33;4.22;;;2.17;;
38717;SDS011;24468;52.128;9.278;2022-08-21T13:13:02;4.82;;;1.95;;
38717;SDS011;24468;52.128;9.278;2022-08-21T13:15:33;2.25;;;1.50;;
38717;SDS011;24468;52.128;9.278;2022-08-21T13:18:02;5.05;;;1.90;;
38717;SDS011;24468;52.128;9.278;2022-08-21T13:20:31;2.92;;;1.35;;
38717;SDS011;24468;52.128;9.278;2022-08-21T13:23:06;5.50;;;1.35;;
38717;SDS011;24468;52.128;9.278;2022-08-21T13:25:53;3.65;;;1.30;;
38717;SDS011;24468;52.128;9.278;2022-08-21T13:28:20;2.50;;;1.33;;
38717;SDS011;24468;52.128;9.278;2022-08-21T13:30:47;5.15;;;1.60;;
38717;SDS011;24468;52.128;9.278;2022-08-21T13:33:19;6.97;;;2.30;;
38717;SDS011;24468;52.128;9.278;2022-08-21T13:35:50;4.47;;;1.80;;
38717;SDS011;24468;52.128;9.278;2022-08-21T13:38:34;4.63;;;1.42;;
38717;SDS011;24468;52.128;9.278;2022-08-21T13:44:24;6.85;;;1.30;;
38717;SDS011;24468;52.128;9.278;2022-08-21T13:46:57;6.75;;;1.52;;
38717;SDS011;24468;52.128;9.278;2022-08-21T13:49:29;4.72;;;1.17;;
38717;SDS011;24468;52.128;9.278;2022-08-21T13:52:01;2.28;;;1.33;;
38717;SDS011;24468;52.128;9.278;2022-08-21T13:54:32;4.65;;;1.90;;
38717;SDS011;24468;52.128;9.278;2022-08-21T13:57:02;5.60;;;2.05;;
38717;SDS011;24468;52.128;9.278;2022-08-21T13:59:33;2.83;;;1.33;;
38717;SDS011;24468;52.128;9.278;2022-08-21T14:02:17;4.45;;;1.38;;
38717;SDS011;24468;52.128;9.278;2022-08-21T14:04:54;5.03;;;1.60;;
38717;SDS011;24468;52.128;9.278;2022-08-21T14:07:28;5.32;;;1.55;;
38717;SDS011;24468;52.128;9.278;2022-08-21T14:10:02;4.75;;;1.83;;
38717;SDS011;24468;52.128;9.278;2022-08-21T14:12:58;4.50;;;1.60;;
38717;SDS011;24468;52.128;9.278;2022-08-21T14:15:32;3.20;;;1.52;;
38717;SDS011;24468;52.128;9.278;2022-08-21T14:18:13;4.85;;;1.65;;
38717;SDS011;24468;52.128;9.278;2022-08-21T14:20:42;6.20;;;2.20;;
38717;SDS011;24468;52.128;9.278;2022-08-21T14:23:10;3.13;;;1.38;;
38717;SDS011;24468;52.128;9.278;2022-08-21T14:25:40;4.28;;;1.33;;
38717;SDS011;24468;52.128;9.278;2022-08-21T14:31:11;5.55;;;1.70;;
38717;SDS011;24468;52.128;9.278;2022-08-21T14:33:43;4.10;;;1.67;;
38717;SDS011;24468;52.128;9.278;2022-08-21T14:36:12;5.35;;;1.42;;
38717;SDS011;24468;52.128;9.278;2022-08-21T14:38:38;5.85;;;2.17;;
38717;SDS011;24468;52.128;9.278;2022-08-21T14:46:13;4.15;;;1.73;;
38717;SDS011;24468;52.128;9.278;2022-08-21T14:48:48;3.33;;;1.50;;
38717;SDS011;24468;52.128;9.278;2022-08-21T14:51:13;6.82;;;1.58;;
38717;SDS011;24468;52.128;9.278;2022-08-21T14:53:39;7.15;;;1.88;;
38717;SDS011;24468;52.128;9.278;2022-08-21T14:56:05;5.55;;;1.90;;
38717;SDS011;24468;52.128;9.278;2022-08-21T14:58:35;5.22;;;1.38;;
38717;SDS011;24468;52.128;9.278;2022-08-21T15:01:07;5.68;;;1.65;;
38717;SDS011;24468;52.128;9.278;2022-08-21T15:03:35;6.25;;;2.10;;
38717;SDS011;24468;52.128;9.278;2022-08-21T15:06:02;7.05;;;1.83;;
38717;SDS011;24468;52.128;9.278;2022-08-21T15:08:29;6.00;;;1.90;;
38717;SDS011;24468;52.128;9.278;2022-08-21T15:10:55;2.47;;;1.58;;
38717;SDS011;24468;52.128;9.278;2022-08-21T15:13:21;4.70;;;1.63;;
38717;SDS011;24468;52.128;9.278;2022-08-21T15:15:48;3.40;;;1.35;;
38717;SDS011;24468;52.128;9.278;2022-08-21T15:18:17;4.68;;;1.52;;
38717;SDS011;24468;52.128;9.278;2022-08-21T15:20:45;2.53;;;1.65;;
38717;SDS011;24468;52.128;9.278;2022-08-21T15:23:11;3.33;;;1.77;;
38717;SDS011;24468;52.128;9.278;2022-08-21T15:25:39;4.63;;;1.77;;
38717;SDS011;24468;52.128;9.278;2022-08-21T15:28:08;4.28;;;1.38;;
38717;SDS011;24468;52.128;9.278;2022-08-21T15:30:34;2.20;;;1.42;;
38717;SDS011;24468;52.128;9.278;2022-08-21T15:33:00;2.60;;;1.50;;
38717;SDS011;24468;52.128;9.278;2022-08-21T15:35:26;3.28;;;1.48;;
38717;SDS011;24468;52.128;9.278;2022-08-21T15:37:51;5.75;;;1.80;;
38717;SDS011;24468;52.128;9.278;2022-08-21T15:40:17;4.10;;;1.88;;
38717;SDS011;24468;52.128;9.278;2022-08-21T15:42:43;6.70;;;2.00;;
38717;SDS011;24468;52.128;9.278;2022-08-21T15:45:10;9.00;;;1.95;;
38717;SDS011;24468;52.128;9.278;2022-08-21T15:47:37;4.88;;;2.03;;
38717;SDS011;24468;52.128;9.278;2022-08-21T15:50:07;3.30;;;1.80;;
38717;SDS011;24468;52.128;9.278;2022-08-21T15:52:34;6.78;;;1.80;;
38717;SDS011;24468;52.128;9.278;2022-08-21T15:55:00;2.72;;;1.55;;
38717;SDS011;24468;52.128;9.278;2022-08-21T15:57:25;3.42;;;1.60;;
38717;SDS011;24468;52.128;9.278;2022-08-21T15:59:57;4.13;;;2.72;;
38717;SDS011;24468;52.128;9.278;2022-08-21T16:02:34;3.08;;;1.42;;
38717;SDS011;24468;52.128;9.278;2022-08-21T16:05:00;4.75;;;1.33;;
38717;SDS011;24468;52.128;9.278;2022-08-21T16:07:26;3.00;;;1.10;;
38717;SDS011;24468;52.128;9.278;2022-08-21T16:09:52;3.88;;;1.73;;
38717;SDS011;24468;52.128;9.278;2022-08-21T16:12:25;6.28;;;1.60;;
38717;SDS011;24468;52.128;9.278;2022-08-21T16:14:57;3.78;;;1.10;;
38717;SDS011;24468;52.128;9.278;2022-08-21T16:17:27;2.35;;;1.42;;
38717;SDS011;24468;52.128;9.278;2022-08-21T16:19:58;4.32;;;1.80;;
38717;SDS011;24468;52.128;9.278;2022-08-21T16:22:28;3.75;;;1.77;;
38717;SDS011;24468;52.128;9.278;2022-08-21T16:24:53;4.63;;;1.50;;
38717;SDS011;24468;52.128;9.278;2022-08-21T16:27:19;5.28;;;1.38;;
38717;SDS011;24468;52.128;9.278;2022-08-21T16:29:45;3.30;;;1.42;;
38717;SDS011;24468;52.128;9.278;2022-08-21T16:32:11;4.60;;;1.23;;
38717;SDS011;24468;52.128;9.278;2022-08-21T16:34:42;6.70;;;2.17;;
38717;SDS011;24468;52.128;9.278;2022-08-21T16:37:15;4.95;;;1.38;;
38717;SDS011;24468;52.128;9.278;2022-08-21T16:39:42;6.63;;;1.70;;
38717;SDS011;24468;52.128;9.278;2022-08-21T16:42:09;3.53;;;1.60;;
38717;SDS011;24468;52.128;9.278;2022-08-21T16:44:41;2.75;;;1.40;;
38717;SDS011;24468;52.128;9.278;2022-08-21T16:47:07;3.47;;;1.73;;
38717;SDS011;24468;52.128;9.278;2022-08-21T16:49:33;2.88;;;1.05;;
38717;SDS011;24468;52.128;9.278;2022-08-21T16:51:59;5.72;;;1.70;;